CheckWX is a tool to help pilots better visualize weather data.  It is not intended as a substitute for an official pre-flight weather briefing.

09:14:30 UTC

KDEH METAR
Decorah Municipal Airport
Decorah, Iowa, USA
Current

20 mins ago

KDEH 190855Z AUTO 07009G14KT 3SM -DZ OVC003 09/09 A2950 RMK AO2 P0001
Observed
May-19 @ 08:55 UTC
Wind
  • 070° at 9 KTS
  • Gusting to 14 KTS
Visibility
3 SM
Flight Rules
LIFR
Conditions
Light Drizzle
Cloud Levels
  • Overcast at 300' AGL
Temperature
C / 48°F
Dewpoint
C / 48°F
Humidity
100%
Altimeter
29.5" Hg
Pressure
999.02 hPa
Current Rain
0.01"
Previous

40 mins ago

KDEH 190835Z AUTO 09013G18KT 5SM BR OVC003 09/09 A2950 RMK AO2
Observed
May-19 @ 08:35 UTC
Wind
  • 090° at 13 KTS
  • Gusting to 18 KTS
Visibility
5 SM
Flight Rules
LIFR
Conditions
Mist
Cloud Levels
  • Overcast at 300' AGL
Temperature
C / 48°F
Dewpoint
C / 48°F
Humidity
100%
Altimeter
29.5" Hg
Pressure
999.02 hPa
Previous

60 mins ago

KDEH 190815Z AUTO 08011G18KT 10SM OVC004 09/09 A2950 RMK AO2
Observed
May-19 @ 08:15 UTC
Wind
  • 080° at 11 KTS
  • Gusting to 18 KTS
Visibility
10 SM
Flight Rules
LIFR
Cloud Levels
  • Overcast at 400' AGL
Temperature
C / 48°F
Dewpoint
C / 48°F
Humidity
100%
Altimeter
29.5" Hg
Pressure
999.02 hPa